Time;durP1;ratioP1;P1;durP2;ratioP2;P2;SDS_P1;SDS_P2;PMS_P1;PMS_P2;Temp;Humidity;BMP_temperature;BMP_pressure;BME280_temperature;BME280_humidity;BME280_pressure;Samples;Min_cycle;Max_cycle;Signal;HPM_P1;HPM_P2
2023/05/13 00:02:18;;;;;;;5.60;3.27;;;;;;;;;;5126434;28;20472;-55
2023/05/13 00:04:46;;;;;;;5.53;4.37;;;;;;;;;;5127306;28;20456;-57
2023/05/13 00:07:13;;;;;;;4.77;3.10;;;;;;;;;;5126891;28;20467;-47
2023/05/13 00:09:40;;;;;;;10.50;4.30;;;;;;;;;;5126701;28;20452;-53
2023/05/13 00:12:08;;;;;;;6.07;3.50;;;16.50;77.60;;;;;;5126990;28;20484;-54
2023/05/13 00:14:36;;;;;;;10.33;4.93;;;;;;;;;;5127431;28;20452;-56
2023/05/13 00:17:03;;;;;;;9.10;3.90;;;;;;;;;;5127081;28;20480;-51
2023/05/13 00:19:30;;;;;;;6.10;3.60;;;;;;;;;;5126333;28;20471;-54
2023/05/13 00:21:59;;;;;;;4.80;3.47;;;16.20;78.60;;;;;;5127368;28;20510;-55
2023/05/13 00:24:26;;;;;;;6.50;4.30;;;;;;;;;;5127728;28;20869;-54
2023/05/13 00:26:53;;;;;;;6.93;4.00;;;;;;;;;;5126737;28;20436;-55
2023/05/13 00:29:22;;;;;;;6.00;4.27;;;16.20;80.00;;;;;;5116324;28;20460;-52
2023/05/13 00:31:49;;;;;;;4.73;3.90;;;;;;;;;;5106220;28;20473;-54
2023/05/13 00:34:17;;;;;;;7.00;3.77;;;;;;;;;;5106538;28;20528;-54
2023/05/13 00:36:44;;;;;;;6.30;4.50;;;;;;;;;;5106560;28;20458;-53
2023/05/13 00:39:12;;;;;;;5.27;3.37;;;;;;;;;;5106738;28;20514;-48
2023/05/13 00:41:39;;;;;;;4.80;3.57;;;;;;;;;;5107360;28;20445;-51
2023/05/13 00:44:06;;;;;;;6.70;4.20;;;;;;;;;;5107378;28;20512;-55
2023/05/13 00:46:34;;;;;;;5.70;3.40;;;16.00;81.80;;;;;;5108134;28;20545;-54
2023/05/13 00:49:04;;;;;;;7.53;4.10;;;15.90;81.80;;;;;;5108306;28;20473;-53
2023/05/13 00:51:31;;;;;;;7.83;4.30;;;;;;;;;;5108839;28;20473;-52
2023/05/13 00:53:59;;;;;;;4.03;3.60;;;16.00;80.00;;;;;;5108053;28;20459;-58
2023/05/13 00:56:26;;;;;;;5.53;4.10;;;15.80;78.40;;;;;;5107941;28;20464;-54
2023/05/13 00:58:53;;;;;;;5.17;4.10;;;;;;;;;;5115137;28;20484;-54
2023/05/13 01:01:38;;;;;;;4.07;3.70;;;15.90;83.00;;;;;;5129282;28;20501;-56
2023/05/13 01:04:17;;;;;;;6.40;3.33;;;15.70;82.90;;;;;;5128074;28;20515;-55
2023/05/13 01:06:52;;;;;;;13.27;4.53;;;16.00;83.80;;;;;;5128161;28;20448;-55
2023/05/13 01:09:29;;;;;;;12.97;4.80;;;15.90;84.20;;;;;;5128024;28;20471;-54
2023/05/13 01:12:02;;;;;;;4.03;3.33;;;15.90;84.70;;;;;;5128877;28;20494;-53
2023/05/13 01:14:33;;;;;;;4.43;3.60;;;15.80;84.90;;;;;;5128808;28;20425;-51
2023/05/13 01:17:07;;;;;;;5.17;4.17;;;15.80;85.50;;;;;;5128046;28;20472;-51
2023/05/13 01:19:43;;;;;;;8.63;4.10;;;15.80;84.70;;;;;;5128347;28;20452;-52
2023/05/13 01:22:13;;;;;;;5.20;3.67;;;15.80;85.80;;;;;;5129068;28;20456;-49
2023/05/13 01:24:45;;;;;;;6.70;3.60;;;15.70;86.10;;;;;;5128055;28;20448;-55
2023/05/13 01:27:12;;;;;;;9.60;3.97;;;;;;;;;;5128631;28;20432;-57
2023/05/13 01:29:40;;;;;;;7.33;3.73;;;;;;;;;;5130557;28;20484;-54
2023/05/13 01:32:08;;;;;;;8.67;3.30;;;15.60;87.30;;;;;;5132161;28;20911;-53
2023/05/13 01:34:36;;;;;;;9.57;3.70;;;15.60;87.80;;;;;;5132138;28;20486;-53
2023/05/13 01:37:04;;;;;;;9.83;4.13;;;;;;;;;;5130903;28;20440;-54
2023/05/13 01:39:37;;;;;;;9.90;3.60;;;15.40;88.10;;;;;;5130970;28;20436;-53
2023/05/13 01:42:04;;;;;;;6.50;3.83;;;;;;;;;;5131168;28;20456;-52
2023/05/13 01:44:31;;;;;;;6.00;3.67;;;;;;;;;;5131495;28;20463;-55
2023/05/13 01:46:58;;;;;;;4.87;3.50;;;;;;;;;;5131137;28;20437;-52
2023/05/13 01:49:27;;;;;;;5.30;3.53;;;15.50;89.20;;;;;;5131943;28;20497;-55
2023/05/13 01:51:54;;;;;;;4.80;3.87;;;;;;;;;;5132096;28;20947;-53
2023/05/13 01:54:22;;;;;;;9.10;4.37;;;;;;;;;;5132015;28;21259;-57
2023/05/13 01:56:50;;;;;;;7.23;3.57;;;15.40;90.20;;;;;;5131897;28;20471;-54
2023/05/13 01:59:17;;;;;;;5.90;3.50;;;;;;;;;;5121754;28;20504;-53
2023/05/13 02:01:44;;;;;;;7.50;4.07;;;;;;;;;;5111960;28;20443;-53
2023/05/13 02:04:12;;;;;;;6.03;4.50;;;;;;;;;;5111566;28;20449;-55
2023/05/13 02:06:39;;;;;;;4.57;3.60;;;;;;;;;;5112116;28;20492;-55
2023/05/13 02:09:06;;;;;;;3.43;3.10;;;;;;;;;;5112130;28;20484;-53
2023/05/13 02:11:34;;;;;;;4.33;3.13;;;;;;;;;;5112031;28;20466;-54
2023/05/13 02:14:03;;;;;;;3.90;3.50;;;;;;;;;;5112299;28;20426;-54
2023/05/13 02:16:31;;;;;;;6.93;4.23;;;15.50;90.00;;;;;;5111996;28;20449;-53
2023/05/13 02:18:58;;;;;;;6.30;3.70;;;;;;;;;;5112781;28;20496;-52
2023/05/13 02:21:25;;;;;;;5.27;3.83;;;;;;;;;;5112029;28;20511;-54
2023/05/13 02:23:53;;;;;;;4.77;3.27;;;;;;;;;;5112030;28;20484;-52
2023/05/13 02:26:20;;;;;;;4.43;3.87;;;;;;;;;;5112088;28;20478;-56
2023/05/13 02:28:47;;;;;;;5.03;3.73;;;;;;;;;;5117538;28;20436;-55
2023/05/13 02:31:18;;;;;;;6.50;3.97;;;15.30;92.80;;;;;;5132765;28;20476;-57
2023/05/13 02:33:45;;;;;;;7.70;4.17;;;;;;;;;;5132872;28;20458;-55
2023/05/13 02:36:12;;;;;;;5.33;4.30;;;;;;;;;;5132290;28;20475;-50
2023/05/13 02:38:39;;;;;;;6.67;5.40;;;;;;;;;;5132065;28;20522;-55
2023/05/13 02:41:07;;;;;;;8.30;3.37;;;;;;;;;;5130720;28;20469;-57
2023/05/13 02:43:34;;;;;;;7.57;3.53;;;;;;;;;;5131948;28;20502;-54
2023/05/13 02:46:02;;;;;;;6.60;3.73;;;15.10;92.90;;;;;;5132489;28;20540;-52
2023/05/13 02:48:31;;;;;;;6.27;3.63;;;14.90;93.60;;;;;;5131845;28;20417;-57
2023/05/13 02:50:58;;;;;;;4.23;3.40;;;;;;;;;;5132199;28;20444;-52
2023/05/13 02:53:27;;;;;;;4.93;3.43;;;15.30;93.90;;;;;;5132274;28;20467;-53
2023/05/13 02:55:55;;;;;;;4.93;4.30;;;;;;;;;;5132577;28;20497;-52
2023/05/13 02:58:22;;;;;;;7.27;4.00;;;;;;;;;;5132888;28;20491;-57
2023/05/13 03:00:50;;;;;;;4.30;3.37;;;;;;;;;;5132502;28;20475;-55
2023/05/13 03:03:17;;;;;;;3.40;2.90;;;;;;;;;;5132497;28;20460;-53
2023/05/13 03:05:45;;;;;;;6.77;3.50;;;15.00;94.30;;;;;;5132235;28;20449;-52
2023/05/13 03:08:16;;;;;;;5.20;3.87;;;;;;;;;;5132041;28;20428;-55
2023/05/13 03:10:43;;;;;;;7.40;3.23;;;;;;;;;;5131902;28;20437;-57
2023/05/13 03:13:10;;;;;;;7.10;3.63;;;;;;;;;;5132646;28;20503;-55
2023/05/13 03:15:37;;;;;;;5.77;3.87;;;;;;;;;;5132588;28;20459;-53
2023/05/13 03:18:04;;;;;;;8.87;4.27;;;;;;;;;;5132448;28;20497;-55
2023/05/13 03:20:32;;;;;;;5.50;4.20;;;;;;;;;;5132512;28;20492;-52
2023/05/13 03:23:00;;;;;;;4.57;3.70;;;14.60;95.80;;;;;;5132817;28;20448;-55
2023/05/13 03:25:27;;;;;;;9.50;4.10;;;;;;;;;;5132446;28;20505;-57
2023/05/13 03:27:54;;;;;;;5.43;3.30;;;;;;;;;;5132474;28;20428;-55
2023/05/13 03:30:22;;;;;;;5.00;4.10;;;;;;;;;;5113838;28;20460;-51
2023/05/13 03:32:49;;;;;;;4.63;3.90;;;;;;;;;;5112434;28;20520;-52
2023/05/13 03:35:16;;;;;;;4.43;3.80;;;;;;;;;;5111973;28;20456;-53
2023/05/13 03:37:43;;;;;;;12.60;3.83;;;;;;;;;;5112462;28;20496;-56
2023/05/13 03:40:12;;;;;;;6.17;4.20;;;14.40;97.20;;;;;;5112666;28;20476;-54
2023/05/13 03:42:39;;;;;;;5.53;3.40;;;;;;;;;;5112235;28;20942;-53
2023/05/13 03:45:07;;;;;;;5.30;3.77;;;14.40;99.90;;;;;;5111942;28;20436;-53
2023/05/13 03:47:37;;;;;;;6.83;3.67;;;;;;;;;;5111108;28;20456;-55
2023/05/13 03:50:05;;;;;;;7.87;4.20;;;14.50;94.90;;;;;;5112067;28;20540;-54
2023/05/13 03:52:32;;;;;;;4.37;3.50;;;;;;;;;;5112421;28;20469;-55
2023/05/13 03:54:59;;;;;;;5.73;5.23;;;;;;;;;;5112586;28;20489;-54
2023/05/13 03:57:27;;;;;;;5.83;3.90;;;14.40;98.20;;;;;;5111896;28;20493;-56
2023/05/13 03:59:55;;;;;;;5.47;3.60;;;;;;;;;;5127400;28;20484;-52
2023/05/13 04:02:22;;;;;;;10.50;4.10;;;;;;;;;;5132580;28;20495;-54
2023/05/13 04:04:50;;;;;;;6.73;4.23;;;;;;;;;;5133470;28;20457;-57
2023/05/13 04:07:17;;;;;;;7.03;4.80;;;;;;;;;;5132368;28;20452;-52
2023/05/13 04:09:44;;;;;;;7.93;4.23;;;;;;;;;;5132521;28;20436;-55
2023/05/13 04:12:11;;;;;;;5.37;4.10;;;;;;;;;;5132544;28;20503;-54
2023/05/13 04:14:42;;;;;;;7.73;4.17;;;14.00;99.70;;;;;;5132163;28;20535;-57
2023/05/13 04:17:09;;;;;;;5.17;4.10;;;;;;;;;;5132534;28;20552;-52
2023/05/13 04:19:36;;;;;;;10.20;4.30;;;;;;;;;;5132579;28;20503;-55
2023/05/13 04:22:03;;;;;;;4.43;3.93;;;;;;;;;;5133268;28;20440;-52
2023/05/13 04:24:30;;;;;;;6.73;3.40;;;;;;;;;;5132277;28;20476;-50
2023/05/13 04:26:57;;;;;;;4.43;3.60;;;;;;;;;;5132842;28;20479;-51
2023/05/13 04:29:24;;;;;;;4.30;3.80;;;;;;;;;;5132787;28;20480;-53
2023/05/13 04:31:54;;;;;;;8.10;4.27;;;14.10;99.70;;;;;;5133352;28;20456;-51
2023/05/13 04:34:21;;;;;;;4.90;3.63;;;;;;;;;;5132569;28;20471;-54
2023/05/13 04:36:48;;;;;;;5.20;4.57;;;;;;;;;;5132640;28;20440;-54
2023/05/13 04:39:15;;;;;;;4.23;3.77;;;;;;;;;;5132595;28;20468;-52
2023/05/13 04:41:42;;;;;;;7.03;3.77;;;;;;;;;;5132968;28;20800;-55
2023/05/13 04:44:10;;;;;;;4.40;3.80;;;;;;;;;;5132756;28;20464;-52
2023/05/13 04:46:39;;;;;;;5.23;3.70;;;;;;;;;;5132543;28;20504;-54
2023/05/13 04:49:07;;;;;;;3.97;3.40;;;14.40;98.20;;;;;;5134948;28;20424;-55
2023/05/13 04:51:34;;;;;;;6.30;3.80;;;;;;;;;;5135551;28;20465;-50
2023/05/13 04:54:01;;;;;;;7.73;4.37;;;;;;;;;;5135954;28;20432;-55
2023/05/13 04:56:29;;;;;;;5.90;3.80;;;;;;;;;;5129441;28;20476;-53
2023/05/13 04:58:56;;;;;;;7.93;3.57;;;;;;;;;;5133247;28;20479;-55
2023/05/13 05:01:23;;;;;;;4.23;3.70;;;;;;;;;;5119575;28;20425;-52
2023/05/13 05:03:50;;;;;;;5.13;4.27;;;;;;;;;;5135355;28;20448;-52
2023/05/13 05:06:18;;;;;;;5.53;4.23;;;14.70;99.90;;;;;;5139382;28;20475;-51
2023/05/13 05:08:45;;;;;;;7.10;4.00;;;;;;;;;;5139926;28;20456;-50
2023/05/13 05:11:13;;;;;;;5.90;3.63;;;;;;;;;;5139254;28;20440;-51
2023/05/13 05:13:40;;;;;;;8.83;3.93;;;;;;;;;;5139326;28;20492;-53
2023/05/13 05:16:07;;;;;;;7.20;4.27;;;;;;;;;;5139766;28;20412;-49
2023/05/13 05:18:35;;;;;;;10.73;4.03;;;;;;;;;;5138862;28;20456;-49
2023/05/13 05:21:02;;;;;;;6.80;4.60;;;;;;;;;;5139326;28;20457;-50
2023/05/13 05:23:30;;;;;;;9.90;4.53;;;14.80;99.60;;;;;;5139410;28;20451;-48
2023/05/13 05:25:58;;;;;;;5.27;4.07;;;;;;;;;;5139182;28;20460;-52
2023/05/13 05:28:25;;;;;;;5.27;3.77;;;;;;;;;;5138404;28;20494;-51
2023/05/13 05:30:53;;;;;;;9.60;4.53;;;;;;;;;;5118479;28;20453;-53
2023/05/13 05:33:20;;;;;;;7.40;4.33;;;;;;;;;;5118579;28;20468;-50
2023/05/13 05:35:47;;;;;;;4.77;3.60;;;;;;;;;;5117798;28;20476;-52
2023/05/13 05:38:14;;;;;;;6.43;3.20;;;;;;;;;;5118553;28;20437;-52
2023/05/13 05:40:45;;;;;;;7.20;3.80;;;15.40;97.80;;;;;;5118422;28;20442;-53
2023/05/13 05:43:12;;;;;;;7.93;3.87;;;;;;;;;;5118512;28;20477;-45
2023/05/13 05:45:40;;;;;;;7.80;4.23;;;15.50;95.80;;;;;;5118437;28;20441;-51
2023/05/13 05:48:07;;;;;;;7.47;3.20;;;15.70;94.80;;;;;;5119434;28;20457;-51
2023/05/13 05:50:35;;;;;;;3.50;3.10;;;;;;;;;;5125164;28;20477;-50
2023/05/13 05:53:02;;;;;;;5.63;3.97;;;;;;;;;;5137440;28;20440;-50
2023/05/13 05:55:30;;;;;;;3.77;3.37;;;;;;;;;;5133776;28;20449;-54
2023/05/13 05:58:02;;;;;;;11.80;2.90;;;15.80;95.80;;;;;;5138456;28;20433;-54
2023/05/13 06:00:29;;;;;;;7.43;3.47;;;;;;;;;;5136209;28;20519;-50
2023/05/13 06:02:57;;;;;;;6.17;3.83;;;;;;;;;;5130290;28;20445;-51
2023/05/13 06:05:24;;;;;;;5.43;3.60;;;;;;;;;;5132100;28;20453;-52
2023/05/13 06:07:51;;;;;;;4.90;3.67;;;;;;;;;;5111833;28;20468;-55
2023/05/13 06:10:18;;;;;;;7.27;4.20;;;;;;;;;;5118513;28;20440;-50
2023/05/13 06:12:45;;;;;;;5.53;3.13;;;;;;;;;;5131335;28;20481;-52
2023/05/13 06:15:13;;;;;;;9.80;3.73;;;16.20;93.90;;;;;;5131733;28;20868;-52
2023/05/13 06:17:41;;;;;;;5.23;3.10;;;;;;;;;;5131514;28;20459;-50
2023/05/13 06:20:08;;;;;;;6.33;3.43;;;;;;;;;;5120568;28;20487;-54
2023/05/13 06:22:35;;;;;;;4.33;3.47;;;;;;;;;;5120540;28;20512;-55
2023/05/13 06:25:02;;;;;;;8.73;4.37;;;;;;;;;;5129751;28;20437;-55
2023/05/13 06:27:29;;;;;;;4.00;2.90;;;;;;;;;;5134606;28;20482;-56
2023/05/13 06:29:57;;;;;;;4.63;3.13;;;;;;;;;;5136905;28;20456;-54
2023/05/13 06:32:25;;;;;;;7.50;3.30;;;17.10;91.10;;;;;;5136380;28;20464;-52
2023/05/13 06:34:52;;;;;;;5.27;3.83;;;;;;;;;;5137176;28;20456;-52
2023/05/13 06:37:19;;;;;;;5.13;3.43;;;;;;;;;;5135931;28;20456;-52
2023/05/13 06:39:47;;;;;;;6.20;3.50;;;;;;;;;;5136640;28;20504;-54
2023/05/13 06:42:14;;;;;;;7.40;3.43;;;;;;;;;;5136029;28;20436;-56
2023/05/13 06:44:41;;;;;;;3.70;3.40;;;;;;;;;;5136530;28;20528;-49
2023/05/13 06:47:09;;;;;;;4.13;3.13;;;;;;;;;;5137718;28;20464;-52
2023/05/13 06:49:37;;;;;;;5.90;4.20;;;17.60;89.60;;;;;;5137581;28;20461;-56
2023/05/13 06:52:04;;;;;;;6.43;3.63;;;;;;;;;;5136304;28;20456;-56
2023/05/13 06:54:31;;;;;;;7.93;4.50;;;;;;;;;;5136700;28;20570;-54
2023/05/13 06:56:58;;;;;;;3.57;2.90;;;;;;;;;;5136533;28;20421;-55
2023/05/13 06:59:25;;;;;;;4.27;3.43;;;;;;;;;;5136408;28;20779;-53
2023/05/13 07:01:52;;;;;;;4.50;3.07;;;;;;;;;;5136179;28;20473;-53
2023/05/13 07:04:20;;;;;;;7.70;3.03;;;;;;;;;;5136294;28;20460;-54
2023/05/13 07:06:49;;;;;;;4.73;3.47;;;17.80;84.40;;;;;;5136655;28;20447;-57
2023/05/13 07:09:16;;;;;;;5.97;2.83;;;;;;;;;;5135662;28;20462;-52
2023/05/13 07:11:43;;;;;;;6.40;3.20;;;;;;;;;;5120899;28;20441;-52
2023/05/13 07:14:11;;;;;;;4.00;3.23;;;;;;;;;;5115193;28;20695;-54
2023/05/13 07:16:38;;;;;;;3.53;3.13;;;;;;;;;;5113752;28;20497;-52
2023/05/13 07:19:05;;;;;;;5.03;3.20;;;;;;;;;;5111469;28;20486;-52
2023/05/13 07:21:32;;;;;;;3.17;2.87;;;;;;;;;;5109542;28;20473;-51
2023/05/13 07:24:04;;;;;;;7.20;3.20;;;25.10;59.40;;;;;;5108337;28;20441;-56
2023/05/13 07:26:31;;;;;;;6.07;3.77;;;;;;;;;;5106147;28;20840;-55
2023/05/13 07:28:58;;;;;;;3.67;3.40;;;;;;;;;;5111985;28;20444;-51
2023/05/13 07:31:25;;;;;;;4.70;3.10;;;;;;;;;;5127883;28;20486;-53
2023/05/13 07:33:52;;;;;;;4.60;3.27;;;;;;;;;;5127868;28;20436;-48
2023/05/13 07:36:21;;;;;;;3.20;2.60;;;;;;;;;;5135018;28;20444;-50
2023/05/13 07:38:48;;;;;;;6.80;3.03;;;;;;;;;;5133992;28;20452;-50
2023/05/13 07:41:16;;;;;;;3.73;2.40;;;26.30;52.20;;;;;;5136185;28;20440;-52
2023/05/13 07:43:43;;;;;;;2.60;2.40;;;;;;;;;;5134131;28;20532;-55
2023/05/13 07:46:11;;;;;;;3.27;2.70;;;;;;;;;;5132581;28;20433;-52
2023/05/13 07:48:38;;;;;;;3.60;3.13;;;;;;;;;;5115167;28;20457;-53
2023/05/13 07:51:05;;;;;;;4.37;2.73;;;30.30;43.30;;;;;;5114447;28;20438;-53
2023/05/13 07:53:32;;;;;;;5.37;2.90;;;;;;;;;;5108932;28;20477;-52
2023/05/13 07:55:59;;;;;;;4.40;3.13;;;;;;;;;;5110361;28;20422;-56
2023/05/13 07:58:28;;;;;;;4.90;2.70;;;31.70;41.40;;;;;;5105022;28;20464;-54
2023/05/13 08:00:55;;;;;;;3.20;2.70;;;;;;;;;;5103850;28;20484;-52
2023/05/13 08:03:22;;;;;;;6.50;3.03;;;;;;;;;;5101454;28;20469;-54
2023/05/13 08:05:49;;;;;;;4.30;3.20;;;;;;;;;;5116188;28;20470;-56
2023/05/13 08:08:16;;;;;;;3.50;3.20;;;;;;;;;;5106652;28;20453;-56
2023/05/13 08:10:43;;;;;;;3.67;3.00;;;;;;;;;;5094223;28;20544;-54
2023/05/13 08:13:10;;;;;;;5.30;3.10;;;;;;;;;;5094587;28;20517;-53
2023/05/13 08:15:39;;;;;;;7.33;3.43;;;33.80;39.20;;;;;;5104977;28;20519;-53
2023/05/13 08:18:06;;;;;;;3.10;2.83;;;;;;;;;;5114194;28;20488;-55
2023/05/13 08:20:33;;;;;;;4.77;3.17;;;;;;;;;;5113824;28;20476;-56
2023/05/13 08:23:00;;;;;;;4.10;3.47;;;;;;;;;;5113263;28;20547;-58
2023/05/13 08:25:28;;;;;;;7.20;3.43;;;;;;;;;;5113903;28;20488;-55
2023/05/13 08:27:55;;;;;;;5.00;3.77;;;;;;;;;;5114152;28;20803;-57
2023/05/13 08:30:22;;;;;;;4.90;3.43;;;;;;;;;;5097723;28;20831;-55
2023/05/13 08:32:50;;;;;;;6.67;4.57;;;34.30;38.40;;;;;;5093057;28;20540;-56
2023/05/13 08:35:17;;;;;;;9.33;2.80;;;;;;;;;;5093618;28;20461;-57
2023/05/13 08:37:45;;;;;;;5.13;3.30;;;;;;;;;;5094013;28;20445;-54
2023/05/13 08:40:12;;;;;;;4.10;3.27;;;;;;;;;;5097245;28;20515;-53
2023/05/13 08:42:40;;;;;;;6.63;3.73;;;34.20;36.40;;;;;;5097684;28;20544;-54
2023/05/13 08:45:09;;;;;;;4.10;2.93;;;34.50;39.00;;;;;;5097597;28;20477;-55
2023/05/13 08:47:46;;;;;;;6.53;3.57;;;34.40;63.50;;;;;;5097812;28;20448;-54
2023/05/13 08:50:15;;;;;;;4.07;2.73;;;34.60;38.40;;;;;;5097882;28;20434;-52
2023/05/13 08:52:42;;;;;;;3.40;3.10;;;;;;;;;;5098022;28;21045;-56
2023/05/13 08:55:09;;;;;;;5.27;3.27;;;;;;;;;;5097840;28;20522;-54
2023/05/13 08:57:37;;;;;;;4.77;3.87;;;;;;;;;;5097965;28;20453;-55
2023/05/13 09:00:04;;;;;;;4.67;3.53;;;;;;;;;;5111322;28;21070;-56
2023/05/13 09:02:32;;;;;;;3.60;3.30;;;;;;;;;;5117741;28;20465;-54
2023/05/13 09:05:02;;;;;;;3.90;3.23;;;34.50;37.90;;;;;;5119452;28;20992;-54
2023/05/13 09:07:31;;;;;;;4.20;3.00;;;34.40;37.50;;;;;;5119642;28;20499;-57
2023/05/13 09:09:59;;;;;;;4.80;3.60;;;;;;;;;;5117922;28;20458;-54
2023/05/13 09:12:51;;;;;;;4.30;3.63;;;34.20;32.80;;;;;;5117648;28;20448;-56
2023/05/13 09:15:19;;;;;;;4.13;3.43;;;34.10;36.30;;;;;;5097730;28;20532;-54
2023/05/13 09:17:50;;;;;;;6.23;3.20;;;34.10;36.60;;;;;;5117617;28;20501;-56
2023/05/13 09:20:19;;;;;;;4.10;3.07;;;34.30;34.20;;;;;;5118020;28;20476;-52
2023/05/13 09:22:48;;;;;;;7.20;3.60;;;34.20;62.10;;;;;;5117910;28;20866;-55
2023/05/13 09:25:16;;;;;;;5.03;3.23;;;34.10;35.40;;;;;;5117322;28;20472;-56
2023/05/13 09:27:44;;;;;;;4.27;3.63;;;34.20;36.70;;;;;;5117665;28;20498;-54
2023/05/13 09:30:12;;;;;;;4.17;3.70;;;;;;;;;;5117415;28;20471;-57
2023/05/13 09:32:39;;;;;;;8.50;3.53;;;;;;;;;;5117278;28;20819;-53
2023/05/13 09:35:12;;;;;;;7.33;2.97;;;34.30;31.20;;;;;;5117120;28;20543;-54
2023/05/13 09:37:39;;;;;;;3.90;3.30;;;;;;;;;;5117162;28;20488;-55
2023/05/13 09:40:12;;;;;;;2.80;2.60;;;34.30;35.60;;;;;;5111307;27;20563;-56
2023/05/13 09:42:42;;;;;;;5.43;2.63;;;33.90;34.90;;;;;;5099445;28;20524;-56
2023/05/13 09:45:10;;;;;;;3.27;2.80;;;33.90;35.30;;;;;;5098375;28;20528;-57
2023/05/13 09:47:38;;;;;;;2.70;2.50;;;;;;;;;;5105662;27;20468;-55
2023/05/13 09:50:06;;;;;;;6.47;3.07;;;33.90;34.00;;;;;;5111457;28;20452;-53
2023/05/13 09:52:34;;;;;;;3.33;2.90;;;34.30;32.30;;;;;;5109320;28;20509;-56
2023/05/13 09:55:03;;;;;;;2.90;2.70;;;;;;;;;;5110889;28;20428;-58
2023/05/13 09:57:32;;;;;;;4.70;3.20;;;34.00;34.20;;;;;;5106567;28;20894;-57
2023/05/13 09:59:59;;;;;;;2.90;2.50;;;;;;;;;;5106213;28;20476;-55
2023/05/13 10:02:27;;;;;;;3.30;2.50;;;33.70;32.70;;;;;;5107218;28;20464;-57
2023/05/13 10:04:55;;;;;;;3.93;2.60;;;;;;;;;;5109691;28;20492;-58
2023/05/13 10:07:24;;;;;;;3.00;2.70;;;;;;;;;;5109884;28;20448;-51
2023/05/13 10:09:55;;;;;;;7.63;3.77;;;33.60;33.60;;;;;;5101818;28;20460;-53
2023/05/13 10:12:25;;;;;;;5.33;3.17;;;33.50;34.80;;;;;;5107538;28;20788;-55
2023/05/13 10:14:54;;;;;;;3.20;2.90;;;33.00;35.30;;;;;;5106435;28;20533;-56
2023/05/13 10:17:22;;;;;;;3.17;2.87;;;32.80;32.70;;;;;;5105234;28;20530;-56
2023/05/13 10:19:50;;;;;;;3.90;2.87;;;32.70;35.50;;;;;;5109793;28;20476;-57
2023/05/13 10:22:24;;;;;;;4.07;2.70;;;32.90;34.70;;;;;;5104723;28;20464;-54
2023/05/13 10:24:51;;;;;;;3.00;2.70;;;32.60;31.20;;;;;;5109781;28;20449;-54
2023/05/13 10:27:21;;;;;;;3.13;2.83;;;32.50;34.70;;;;;;5112070;28;20468;-53
2023/05/13 10:29:48;;;;;;;3.77;2.70;;;;;;;;;;5108533;28;20440;-55
2023/05/13 10:32:16;;;;;;;3.93;2.43;;;32.10;35.30;;;;;;5105723;28;20433;-55
2023/05/13 10:34:45;;;;;;;4.27;3.10;;;31.30;36.50;;;;;;5106956;28;20532;-55
2023/05/13 10:37:53;;;;;;;3.73;2.83;;;30.80;32.20;;;;;;5108119;28;20459;-55
2023/05/13 10:40:41;;;;;;;4.93;2.67;;;30.60;32.20;;;;;;5064677;28;20558;-57
2023/05/13 10:43:17;;;;;;;5.10;3.27;;;30.30;31.90;;;;;;5102781;28;20876;-51
2023/05/13 10:45:45;;;;;;;3.60;3.00;;;30.20;38.30;;;;;;5112604;28;20674;-53
2023/05/13 10:48:15;;;;;;;3.17;2.80;;;29.90;39.50;;;;;;5111367;28;20510;-56
2023/05/13 10:50:52;;;;;;;2.80;2.57;;;29.80;38.70;;;;;;5111422;28;20551;-57
2023/05/13 10:53:23;;;;;;;3.70;2.60;;;29.10;40.00;;;;;;5108729;28;20525;-55
2023/05/13 10:55:53;;;;;;;4.53;3.50;;;29.00;41.00;;;;;;5109047;28;20472;-55
2023/05/13 10:58:23;;;;;;;3.80;2.40;;;;;;;;;;5109955;28;20547;-56
2023/05/13 11:00:50;;;;;;;3.93;2.60;;;;;;;;;;5108657;28;20477;-57
2023/05/13 11:03:29;;;;;;;2.60;2.40;;;28.40;41.30;;;;;;5106704;28;20440;-57
2023/05/13 11:06:13;;;;;;;4.37;2.63;;;28.20;35.80;;;;;;5106986;28;20516;-54
2023/05/13 11:08:42;;;;;;;5.63;2.90;;;28.10;40.50;;;;;;5108567;28;20497;-56
2023/05/13 11:11:33;;;;;;;4.67;2.73;;;28.60;35.90;;;;;;5110732;28;20523;-57
2023/05/13 11:14:08;;;;;;;6.03;2.80;;;28.40;36.40;;;;;;5089695;28;20527;-55
2023/05/13 11:16:36;;;;;;;4.70;2.43;;;;;;;;;;5115198;28;20424;-57
2023/05/13 11:19:08;;;;;;;2.93;2.60;;;27.50;42.00;;;;;;5109630;28;20493;-58
2023/05/13 11:21:38;;;;;;;6.43;2.43;;;27.80;39.70;;;;;;5109527;28;20496;-55
2023/05/13 11:24:06;;;;;;;2.60;2.37;;;27.50;41.00;;;;;;5113775;28;20498;-57
2023/05/13 11:26:46;;;;;;;4.03;2.40;;;27.30;36.30;;;;;;5114971;28;20784;-51
2023/05/13 11:29:14;;;;;;;6.80;3.50;;;;;;;;;;5115537;28;20524;-54
2023/05/13 11:31:46;;;;;;;4.27;2.50;;;27.10;36.40;;;;;;5114964;28;20506;-57
2023/05/13 11:34:15;;;;;;;4.30;2.40;;;28.20;42.30;;;;;;5115709;28;20520;-54
2023/05/13 11:36:45;;;;;;;4.03;3.57;;;27.10;41.50;;;;;;5113752;28;20523;-57
2023/05/13 11:39:15;;;;;;;5.00;2.50;;;26.90;41.90;;;;;;5116388;28;21234;-57
2023/05/13 11:41:44;;;;;;;6.33;2.77;;;26.70;42.10;;;;;;5111765;28;21163;-56
2023/05/13 11:44:12;;;;;;;2.90;2.43;;;26.70;43.00;;;;;;5114304;28;20552;-57
2023/05/13 11:46:49;;;;;;;6.70;2.70;;;;;;;;;;5110969;28;20499;-53
2023/05/13 11:49:35;;;;;;;5.40;3.10;;;26.60;42.40;;;;;;5106906;28;20522;-55
2023/05/13 11:52:04;;;;;;;4.37;3.20;;;26.30;41.60;;;;;;5106769;28;20508;-56
2023/05/13 11:54:31;;;;;;;3.27;2.93;;;;;;;;;;5109397;28;20552;-58
2023/05/13 11:56:58;;;;;;;6.13;3.17;;;;;;;;;;5108097;28;20440;-55
2023/05/13 11:59:25;;;;;;;3.77;2.97;;;;;;;;;;5108640;28;20544;-56
2023/05/13 12:01:59;;;;;;;4.20;3.20;;;26.30;38.40;;;;;;5114808;28;20477;-57
2023/05/13 12:04:35;;;;;;;4.10;2.50;;;26.30;43.30;;;;;;5109503;28;20487;-56
2023/05/13 12:07:03;;;;;;;4.27;2.50;;;;;;;;;;5112882;28;20488;-54
2023/05/13 12:09:30;;;;;;;4.43;2.93;;;;;;;;;;5107818;28;20523;-56
2023/05/13 12:11:57;;;;;;;3.77;2.70;;;;;;;;;;5110617;28;20539;-54
2023/05/13 12:14:26;;;;;;;3.27;2.97;;;26.00;40.90;;;;;;5110034;28;20529;-57
2023/05/13 12:16:53;;;;;;;8.90;2.83;;;;;;;;;;5104160;28;20457;-57
2023/05/13 12:19:20;;;;;;;5.10;2.80;;;;;;;;;;5110939;28;20992;-53
2023/05/13 12:21:50;;;;;;;8.00;2.77;;;25.90;42.50;;;;;;5114334;28;20508;-57
2023/05/13 12:24:18;;;;;;;3.07;2.47;;;25.60;43.60;;;;;;5115318;28;20524;-56
2023/05/13 12:26:45;;;;;;;4.70;2.60;;;;;;;;;;5113703;28;20452;-55
2023/05/13 12:29:13;;;;;;;5.30;2.97;;;;;;;;;;5115636;28;20456;-55
2023/05/13 12:31:42;;;;;;;4.23;3.33;;;26.00;42.90;;;;;;5115388;28;20890;-51
2023/05/13 12:34:09;;;;;;;4.00;2.50;;;;;;;;;;5112394;28;20548;-54
2023/05/13 12:36:37;;;;;;;5.50;4.10;;;25.90;42.80;;;;;;5113034;28;20536;-53
2023/05/13 12:39:07;;;;;;;5.23;3.17;;;25.80;43.10;;;;;;5112638;28;20461;-51
2023/05/13 12:41:35;;;;;;;3.00;2.70;;;25.80;41.10;;;;;;5109942;28;20511;-54
2023/05/13 12:44:04;;;;;;;3.10;2.80;;;25.70;43.10;;;;;;5115770;28;20882;-52
2023/05/13 12:46:31;;;;;;;3.13;2.90;;;;;;;;;;5117953;28;20531;-56
2023/05/13 12:48:59;;;;;;;4.30;2.43;;;25.30;44.80;;;;;;5115389;28;20451;-55
2023/05/13 12:51:27;;;;;;;6.37;4.20;;;;;;;;;;5115165;28;20887;-55
2023/05/13 12:53:54;;;;;;;2.93;2.60;;;;;;;;;;5116323;28;20528;-52
2023/05/13 12:56:23;;;;;;;3.60;2.70;;;25.30;45.50;;;;;;5109607;28;20483;-55
2023/05/13 12:58:52;;;;;;;7.33;2.73;;;25.10;42.90;;;;;;5112637;28;20445;-53
2023/05/13 13:01:19;;;;;;;3.23;2.67;;;;;;;;;;5099919;28;20576;-56
2023/05/13 13:03:47;;;;;;;3.40;2.97;;;;;;;;;;5103909;28;20516;-56
2023/05/13 13:06:14;;;;;;;3.63;2.77;;;;;;;;;;5109119;28;20495;-54
2023/05/13 13:08:41;;;;;;;4.90;2.80;;;;;;;;;;5103447;28;20528;-49
2023/05/13 13:11:09;;;;;;;4.20;2.80;;;;;;;;;;5109202;28;20465;-53
2023/05/13 13:13:37;;;;;;;8.80;2.53;;;25.50;45.90;;;;;;5112057;28;20476;-51
2023/05/13 13:16:05;;;;;;;3.33;2.70;;;;;;;;;;5106701;28;20515;-53
2023/05/13 13:18:32;;;;;;;3.77;3.00;;;;;;;;;;5112658;28;20444;-52
2023/05/13 13:20:59;;;;;;;3.10;2.80;;;;;;;;;;5114176;28;20572;-56
2023/05/13 13:23:26;;;;;;;3.67;3.03;;;;;;;;;;5114287;28;20571;-54
2023/05/13 13:25:53;;;;;;;6.13;3.47;;;;;;;;;;5114814;28;20512;-53
2023/05/13 13:28:20;;;;;;;6.00;3.63;;;;;;;;;;5117543;28;20460;-54
2023/05/13 13:30:49;;;;;;;5.87;4.10;;;25.80;46.20;;;;;;5122108;27;20503;-51
2023/05/13 13:33:16;;;;;;;3.20;2.90;;;;;;;;;;5117377;27;20540;-56
2023/05/13 13:35:44;;;;;;;5.17;3.03;;;25.70;44.30;;;;;;5108609;28;20495;-54
2023/05/13 13:38:11;;;;;;;6.83;3.80;;;;;;;;;;5114377;28;20524;-55
2023/05/13 13:40:38;;;;;;;4.50;3.30;;;;;;;;;;5111156;28;20623;-53
2023/05/13 13:43:06;;;;;;;4.00;3.60;;;26.40;46.30;;;;;;5111663;28;20593;-56
2023/05/13 13:45:33;;;;;;;3.60;3.03;;;;;;;;;;5114905;28;20447;-56
2023/05/13 13:48:02;;;;;;;5.23;2.90;;;26.20;46.00;;;;;;5112972;27;20809;-55
2023/05/13 13:50:29;;;;;;;7.43;2.97;;;;;;;;;;5116686;28;20431;-57
2023/05/13 13:52:56;;;;;;;4.23;3.17;;;;;;;;;;5116695;28;20436;-55
2023/05/13 13:55:23;;;;;;;3.27;2.50;;;;;;;;;;5120633;28;20484;-52
2023/05/13 13:57:51;;;;;;;4.43;3.87;;;;;;;;;;5121768;28;20440;-52
2023/05/13 14:00:19;;;;;;;5.53;3.23;;;;;;;;;;5107668;28;20461;-53
2023/05/13 14:02:46;;;;;;;3.80;2.83;;;;;;;;;;5097555;28;20484;-54
2023/05/13 14:05:14;;;;;;;3.53;2.63;;;26.10;45.40;;;;;;5099150;28;20543;-56